Terminal Aerodrome Forecast
Issued by NWS

Home | Current Version | Previous Version | Text Only | Print | Product List | Glossary On
Versions: 1 2 3 4 5 6 7 8 9 10 11 12 13 14 15 16 17 18 19 20 21 22 23 24 25 26 27 28 29 30 31 32 33 34 35 36 37 38 39 40 41 42 43 44 45 46 47 48 49 50
000
FTUS45 KGJT 021125
TAFDRO
TAF
KDRO 021125Z 0212/0312 08005KT P6SM VCSH SCT035 OVC070
      TEMPO 0212/0214 -RA BKN035
     FM021800 11010KT P6SM VCSH SCT012 OVC025 WS010/24030KT
     FM022300 23015G25KT 3SM -RA BR SCT007 OVC012
     FM030200 27018G28KT 1 1/2SM -SN BR OVC007
     FM030600 25012G22KT 3SM -SN BR SCT007 OVC012=

USA.gov is the U.S. government's official web portal to all federal, state and local government web resources and services.